Terminal Aerodrome Forecast
Issued by NWS Pocatello, ID

Home | Current Version | Previous Version | Text Only | Print | Product List | Glossary On
Versions: 1 2 3 4 5 6 7 8 9 10 11 12 13 14 15 16 17 18
885
FTUS45 KPIH 161120
TAFPIH
TAF
KPIH 161120Z 1612/1712 34005KT 3SM BR OVC012
     FM161500 26004KT 5SM BR SCT012 BKN015
     FM162000 VRB03KT P6SM FEW010
     FM170400 21005KT P6SM VCFG SCT008
     FM170700 VRB03KT 4SM BR OVC008=

USA.gov is the U.S. government's official web portal to all federal, state and local government web resources and services.